• Join FlightAware (Why Join?)
  • Login
  • US Flag GB Flag 
22:49 EDT


 

Airport Tracker/Info


-or-


 

Live Flight TrackerFlight Track Log ✈ SWA975 ✈ 13-Apr-2013 ✈ KFLL - KBUF

Flight Track Log - Related Links

Times and Time Zones

All times are in EDT time to prevent confusion due to time zone crossing. See the SWA975 flight status page for this flight to view local times or setup timezone preferences in your user account.

Time Position Orientation Groundspeed Altitude Reporting Facility
EDT Latitude Longitude Course Direction KTS MPH feet Rate Location/Type
20:52 26.0750 -80.1297 85° East 178 205 1,200  Level Miami Center
20:53 26.0808 -80.0606 85° East 254 292 2,600 2,340 Climbing Miami Center
20:55 26.1131 -79.9203 76° East 313 360 7,700 2,820 Climbing Miami Center
20:56 26.1606 -79.8428 56° Northeast 293 337 10,500 2,340 Climbing Miami Center
20:57 26.2125 -79.7514 58° Northeast 313 360 12,400 2,340 Climbing Miami Center
20:58 26.2772 -79.6533 54° Northeast 351 404 15,200 2,400 Climbing Miami Center
20:59 26.3436 -79.5692 49° Northeast 382 440 17,200 2,100 Climbing Miami Center
21:00 26.4492 -79.5042 29° Northeast 388 447 19,400 2,040 Climbing Miami Center
21:01 26.5442 -79.4506 27° Northeast 410 472 21,300 1,980 Climbing Miami Center
21:02 26.6600 -79.3858 27° Northeast 417 480 23,400 1,560 Climbing Miami Center
21:03 26.7592 -79.3275 28° Northeast 425 489 24,500 1,440 Climbing Miami Center
21:04 26.8731 -79.2647 26° Northeast 441 507 26,300 1,800 Climbing Miami Center
21:05 26.9828 -79.1922 30° Northeast 446 513 28,100 1,680 Climbing Miami Center
21:06 27.1114 -79.1250 25° Northeast 458 527 29,700 1,500 Climbing Miami Center
21:07 27.2167 -79.0708 25° Northeast 453 521 31,100 1,200 Climbing Miami Center
21:08 27.3403 -79.0475 10° North 442 509 32,100 1,080 Climbing Miami Center
21:09 27.4783 -79.0244 North 452 520 33,300 1,140 Climbing Miami Center
21:10 27.6039 -79.0056 North 457 526 34,400 900 Climbing Miami Center
21:11 27.7317 -78.9844 North 457 526 35,200 840 Climbing Miami Center
21:12 27.8425 -78.9678 North 450 518 36,100 720 Climbing Miami Center
21:13 27.9661 -78.9489 North 444 511 36,700 420 Climbing Miami Center
21:14 28.0917 -78.9278 North 450 518 37,000 120 Climbing Miami Center
21:15 28.2150 -78.9064 North 450 518 37,000  Level Miami Center
21:16 28.3447 -78.8875 North 455 524 37,000  Level Miami Center
21:17 28.4703 -78.8686 North 449 517 37,000  Level Miami Center
21:18 28.5978 -78.8497 North 454 522 37,000  Level Miami Center
21:19 28.7253 -78.8306 North 454 522 37,000  Level Miami Center
21:20 28.8508 -78.8092 North 454 522 37,000  Level Miami Center
21:21 28.9764 -78.7900 North 454 522 37,000  Level Miami Center
21:22 29.0997 -78.7658 10° North 449 517 37,000  Level Miami Center
21:23 29.2253 -78.7467 North 449 517 37,000  Level Miami Center
21:24 29.3506 -78.7297 North 444 511 37,000  Level Miami Center
21:25 29.4739 -78.7106 North 439 505 37,000  Level Miami Center
21:26 29.5992 -78.6911 North 448 516 37,000  Level Miami Center
21:27 29.7186 -78.6669 10° North 448 516 37,000  Level Miami Center
21:28 29.9428 -78.6311 North 443 510 37,000  Level Jacksonville Center
21:29 30.0694 -78.6136 North 442 509 37,000  Level Jacksonville Center
21:30 30.1917 -78.5889 10° North 447 514 37,000  Level Jacksonville Center
21:31 30.3206 -78.5686 North 447 514 37,000  Level Jacksonville Center
21:32 30.4494 -78.5508 North 466 536 37,000  Level Jacksonville Center
21:33 30.5739 -78.5306 North 471 542 37,000  Level Jacksonville Center
21:34 30.6961 -78.5081 North 451 519 37,000  Level Jacksonville Center
21:35 30.8186 -78.4856 North 443 510 37,000  Level Jacksonville Center
21:36 30.9411 -78.4628 North 458 527 37,000  Level Jacksonville Center
21:37 31.0614 -78.4450 North 456 525 37,000  Level Jacksonville Center
21:38 31.1839 -78.4272 North 451 519 37,000  Level Jacksonville Center
21:39 31.3086 -78.4067 North 446 513 37,000  Level Jacksonville Center
21:40 31.4350 -78.3833 North 446 513 37,000  Level Jacksonville Center
21:41 31.5575 -78.3653 North 446 513 37,000  Level Jacksonville Center
21:42 31.6842 -78.3444 North 451 519 37,000  Level Jacksonville Center
21:43 31.8106 -78.3211 North 451 519 37,000  Level Jacksonville Center
21:44 31.9392 -78.3003 North 457 526 37,000  Level Jacksonville Center
21:45 32.0678 -78.2767 North 463 533 37,000  Level Jacksonville Center
21:46 32.2006 -78.2528 North 463 533 37,000  Level Jacksonville Center
21:47 32.3292 -78.2314 North 463 533 37,000  Level Jacksonville Center
21:48 32.4578 -78.2075 North 463 533 37,000  Level Jacksonville Center
21:49 32.5883 -78.1861 North 463 533 37,000  Level Jacksonville Center
21:50 32.7189 -78.1594 10° North 468 539 37,000  Level Jacksonville Center
21:51 32.8494 -78.1378 North 468 539 37,000  Level Jacksonville Center
21:52 32.9803 -78.1161 North 468 539 37,000  Level Jacksonville Center
21:53 33.1128 -78.0942 North 468 539 37,000  Level Jacksonville Center
21:54 33.2436 -78.0722 North 468 539 37,000  Level Jacksonville Center
21:55 33.3719 -78.0503 North 468 539 37,000  Level Jacksonville Center
21:56 33.4167 -78.0419 North 475 547 37,000  Level Washington Center
21:57 33.5464 -78.0183 North 480 552 37,000  Level Washington Center
21:58 33.6783 -77.9997 North 480 552 37,000  Level Washington Center
21:59 33.8200 -78.0089 357° North 469 540 37,000  Level Washington Center
22:00 33.9386 -78.0175 357° North 461 531 37,000  Level Washington Center
22:01 34.0700 -78.0261 357° North 466 536 37,000  Level Washington Center
22:02 34.2011 -78.0350 357° North 466 536 37,000  Level Washington Center
22:03 34.3450 -78.0469 356° North 466 536 37,000  Level Washington Center
22:04 34.4761 -78.0558 357° North 466 536 37,000  Level Washington Center
22:05 34.6053 -78.0647 357° North 466 536 37,000  Level Washington Center
22:06 34.7344 -78.0764 356° North 461 531 37,000  Level Washington Center
22:07 34.8511 -78.0800 359° North 461 531 37,000  Level Washington Center
22:08 34.9783 -78.0864 358° North 461 531 37,000  Level Washington Center
22:09 35.1094 -78.0981 356° North 461 531 37,000  Level Washington Center
22:10 35.2367 -78.1069 357° North 461 531 37,000  Level Washington Center
22:11 35.3700 -78.1189 356° North 461 531 37,000  Level Washington Center
22:12 35.4969 -78.1253 358° North 461 531 37,000  Level Washington Center
22:13 35.6261 -78.1372 356° North 461 531 37,000  Level Washington Center
22:14 35.7594 -78.1467 357° North 461 531 37,000  Level Washington Center
22:15 35.8908 -78.1558 357° North 461 531 37,000  Level Washington Center
22:16 36.0219 -78.1678 356° North 461 531 37,000  Level Washington Center
22:17 36.1511 -78.1772 357° North 461 531 37,000  Level Washington Center
22:18 36.2969 -78.1872 357° North 467 537 37,000  Level Washington Center
22:19 36.4261 -78.1967 357° North 467 537 37,000  Level Washington Center
22:20 36.5553 -78.2061 357° North 467 537 37,000  Level Washington Center
22:21 36.6844 -78.2183 356° North 461 531 37,000  Level Washington Center
22:22 36.8136 -78.2278 357° North 461 531 37,000  Level Washington Center
22:23 36.9428 -78.2372 357° North 461 531 37,000  Level Washington Center
22:24 37.0614 -78.2414 358° North 461 531 37,000  Level Washington Center
22:25 37.1947 -78.2514 357° North 466 536 37,000  Level Washington Center
22:26 37.3406 -78.2642 356° North 471 542 37,000  Level Washington Center
22:27 37.4717 -78.2739 357° North 471 542 37,000  Level Washington Center
22:28 37.6008 -78.2864 356° North 476 548 37,000  Level Washington Center
22:29 37.7319 -78.2936 358° North 476 548 37,000  Level Washington Center
22:30 37.8506 -78.3058 355° North 476 548 37,000  Level Washington Center
22:31 37.9839 -78.3158 357° North 476 548 37,000  Level Washington Center
22:32 38.1214 -78.3261 357° North 469 540 37,000  Level Washington Center
22:33 38.2544 -78.3364 357° North 464 534 37,000  Level Washington Center
22:34 38.3856 -78.3492 356° North 464 534 37,000  Level Washington Center
22:35 38.5189 -78.3594 357° North 469 540 37,000  Level Washington Center
22:36 38.6542 -78.3697 357° North 475 547 37,000  Level Washington Center
22:37 38.7831 -78.3800 356° North 475 547 37,000  Level Washington Center
22:39 39.0728 -78.4042 356° North 480 552 37,000  Level Cleveland Center
22:40 39.2064 -78.4161 356° North 480 552 37,000  Level Cleveland Center
22:41 39.3381 -78.4253 357° North 480 552 37,000  Level Cleveland Center
22:42 39.4653 -78.4375 356° North 473 544 37,000  Level Cleveland Center
22:43 39.5989 -78.4494 356° North 473 544 37,000  Level Cleveland Center
22:44 39.7283 -78.4561 358° North 473 544 37,000  Level Cleveland Center
22:45 39.8536 -78.4656 357° North 466 536 37,000  Level Cleveland Center
22:46 39.9853 -78.4778 356° North 461 531 37,000  Level Cleveland Center
22:47 40.1167 -78.4872 357° North 467 537 37,000  Level Cleveland Center
22:48 40.2442 -78.4994 356° North 462 532 37,000  Level Cleveland Center
22:49 40.3694 -78.5092 357° North 462 532 37,000  Level Cleveland Center
22:50 40.4967 -78.5189 357° North 462 532 37,000  Level Cleveland Center
22:51 40.6283 -78.5314 356° North 462 532 37,000  Level Cleveland Center
22:52 40.7556 -78.5411 357° North 462 532 37,000  Level Cleveland Center
22:53 40.8725 -78.5511 356° North 462 532 37,000 -840 Level Cleveland Center
22:54 40.9978 -78.5611 357° North 462 532 35,400 -1,860 Descending Cleveland Center
22:55 41.1189 -78.5711 356° North 451 519 33,300 -2,100 Descending Cleveland Center
22:56 41.2422 -78.5811 357° North 446 513 31,300 -2,040 Descending Cleveland Center
22:57 41.3569 -78.5942 355° North 425 489 29,300 -2,040 Descending Cleveland Center
22:58 41.4633 -78.6019 357° North 403 464 27,300 -1,980 Descending Cleveland Center
22:59 41.5700 -78.6097 357° North 388 447 25,400 -1,680 Descending Cleveland Center
23:00 41.6744 -78.6206 356° North 383 441 24,000 -1,260 Descending Cleveland Center
23:01 41.7725 -78.6286 356° North 369 425 22,900 -1,440 Descending Cleveland Center
23:02 41.8664 -78.6397 355° North 347 399 21,200 -1,740 Descending Cleveland Center
23:03 41.9603 -78.6481 356° North 337 388 19,500 -1,680 Descending Cleveland Center
23:04 42.0500 -78.6536 357° North 332 382 17,900 -1,620 Descending Cleveland Center
23:05 42.1400 -78.6650 355° North 326 375 16,300 -1,740 Descending Cleveland Center
23:06 42.2317 -78.6678 359° North 321 369 14,500 -1,620 Descending Cleveland Center
23:07 42.3153 -78.6767 356° North 309 356 13,100 -1,740 Descending Cleveland Center
23:08 42.4008 -78.6825 357° North 303 349 11,100 -1,740 Descending Cleveland Center
23:09 42.4819 -78.6772 North 298 343 9,700 -1,380 Descending Cleveland Center
23:10 42.5628 -78.6408 18° North 293 337 8,400 -1,200 Descending Cleveland Center
23:11 42.6311 -78.6161 15° North 288 331 7,300 -1,200 Descending Cleveland Center
23:12 42.7056 -78.5856 17° North 280 322 6,000 -1,440 Descending Cleveland Center
23:13 42.7842 -78.5578 15° North 266 306 4,500 -1,020 Descending Cleveland Center
23:14 42.8525 -78.5300 17° North 259 298 4,000 -600 Descending Cleveland Center
23:15 42.9169 -78.5136 11° North 247 284 3,400 -540 Descending Cleveland Center
23:17 43.0500 -78.5667 344° North 172 198 2,300 -360 Descending Buffalo TRACON
23:18 43.0167 -78.6167 228° Southwest 138 159 2,300 -180 Level Buffalo TRACON
23:19 43.0000 -78.6500 236° Southwest 148 170 2,000 -540 Descending Buffalo TRACON
23:20 42.9667 -78.6833 216° Southwest 131 151 1,300 -720 Descending Buffalo TRACON